Jump to content


DELTA AIRLINES FLIGHT DL481 FLOWN ON 03-12-2018 BY CAPTAIN DEREK ROGY

Pilot StatsCaptain Derek Rogy (LDP86) • 1,600.5 total hours • 835 total flights [View Logbook]
FLIGHT DETAILS
StatusReceived and approved on 2018-03-12 at 19:03:31
Origin AirportKennedy Intl (KJFK) • New York, New York, United States (13 feet MSL)
Filed Flight PlanKJFK LAURN J222 RBV J42 BRAND J191 DAVYS J42 OOD J150 STIKY J42 BROSS J150 AGARD J42 GRACO J150 OTT J42 BOOYA J150 GVE J42 MOL J22 VUZ J31 DELBE J22 PSX J177 TAM UJ19 ALKOM MMMX
Destination AirportLic Benito Juarez Intl (MMMX) • Mexico City, Mexico (7,314 feet MSL)
Alternate AirportNone Filed
AirlineDelta Airlines
AircraftBoeing 757-200 | Winglets (75W / B757-200)
FS Aircraft Used757-200 Delta N535US ETOPS Winglets
Cruising AltitudeFL380
Distance Flown1,818 nautical miles
Passengers Onboard148 passengers (79.57% full)
DEPARTURE DETAILS
Time Out09:13:10
Taxi Data221,568 lbs total with 57,327 lbs of fuel onboard
Takeoff Data09:39:00 (26 minutes after leaving gate/ramp) • 218,988 lbs total • 8° pitch at 151 knots
Departure METARKJFK 121751Z 10013KT 10SM FEW043 BKN055 BKN170 OVC260 07/00 A2992 RMK AO2 SLP131 T00670000 10072 21006 58028
ARRIVAL DETAILS
Landing Data13:31:54 • 182,948 lbs total • 7° pitch doing 115 knots at a rate of -249.14 feet/minute with 18,780 lbs of fuel onboard
Time In13:38:08 (6 minutes after landing)
Ramp Weight182,380 lbs total
Total Fuel Used38,547 lbs
Total Block Time05:24:57 (5.4 hours) while 32 minutes were spent on the ground
Arrival METARMMMX 122321Z 21008KT 6SM BKN020CB BKN200 24/05 A3017 TEMPO 4SM TSRA RMK 8/308 HZY OCNL DROPS PCPN N
MISCELLANEOUS DETAILS
LiveDISPATCH Version4.8.3.1
FS Version
FSUIPC Version5.12
OS VersionWindows 7 32-bit
Screen Resolution1920 x 1200
Pilot's CommentsNo Comments Reported
FLIGHT MAP